Terminal Aerodrome Forecast
Issued by NWS

Home | Current Version | Previous Version | Text Only | Print | Product List | Glossary On
Versions: 1 2 3 4 5 6 7 8 9 10 11 12 13 14 15 16 17
000
FTUS46 KPDT 270500
TAFDLS
TAF
KDLS 270524Z 2706/2806 15004KT P6SM SCT110 BKN150
     FM270900 30005KT P6SM BKN060 OVC080
     FM271500 VRB05KT P6SM -SHRA SCT040 OVC060
     FM280000 30004KT P6SM -RA OVC050=

USA.gov is the U.S. government's official web portal to all federal, state and local government web resources and services.